sensor_id;sensor_type;location;lat;lon;timestamp;temperature;humidity
5276;DHT22;2661;50.786;12.728;2023-05-07T00:00:19;10.40;1.00
5276;DHT22;2661;50.786;12.728;2023-05-07T00:02:46;10.30;1.00
5276;DHT22;2661;50.786;12.728;2023-05-07T00:05:12;10.30;1.00
5276;DHT22;2661;50.786;12.728;2023-05-07T00:07:40;10.30;1.00
5276;DHT22;2661;50.786;12.728;2023-05-07T00:10:07;10.40;1.00
5276;DHT22;2661;50.786;12.728;2023-05-07T00:12:34;10.30;1.00
5276;DHT22;2661;50.786;12.728;2023-05-07T00:15:04;10.40;1.00
5276;DHT22;2661;50.786;12.728;2023-05-07T00:17:30;10.40;1.00
5276;DHT22;2661;50.786;12.728;2023-05-07T00:19:57;10.40;1.00
5276;DHT22;2661;50.786;12.728;2023-05-07T00:22:23;10.30;1.00
5276;DHT22;2661;50.786;12.728;2023-05-07T00:24:50;10.40;1.00
5276;DHT22;2661;50.786;12.728;2023-05-07T00:27:16;10.30;1.00
5276;DHT22;2661;50.786;12.728;2023-05-07T00:29:43;10.40;1.00
5276;DHT22;2661;50.786;12.728;2023-05-07T00:32:10;10.30;1.00
5276;DHT22;2661;50.786;12.728;2023-05-07T00:34:37;10.30;1.00
5276;DHT22;2661;50.786;12.728;2023-05-07T00:37:03;10.30;1.00
5276;DHT22;2661;50.786;12.728;2023-05-07T00:39:32;10.30;1.00
5276;DHT22;2661;50.786;12.728;2023-05-07T00:41:58;10.30;1.00
5276;DHT22;2661;50.786;12.728;2023-05-07T00:44:25;10.40;1.00
5276;DHT22;2661;50.786;12.728;2023-05-07T00:46:53;10.30;1.00
5276;DHT22;2661;50.786;12.728;2023-05-07T00:49:20;10.30;1.00
5276;DHT22;2661;50.786;12.728;2023-05-07T00:51:47;10.40;1.00
5276;DHT22;2661;50.786;12.728;2023-05-07T00:54:13;10.30;1.00
5276;DHT22;2661;50.786;12.728;2023-05-07T00:56:40;10.40;1.00
5276;DHT22;2661;50.786;12.728;2023-05-07T00:59:06;10.40;1.00
5276;DHT22;2661;50.786;12.728;2023-05-07T01:01:33;10.30;1.00
5276;DHT22;2661;50.786;12.728;2023-05-07T01:04:00;10.30;1.00
5276;DHT22;2661;50.786;12.728;2023-05-07T01:06:28;10.30;1.00
5276;DHT22;2661;50.786;12.728;2023-05-07T01:08:55;10.30;1.00
5276;DHT22;2661;50.786;12.728;2023-05-07T01:11:23;10.30;99.90
5276;DHT22;2661;50.786;12.728;2023-05-07T01:13:50;10.20;99.90
5276;DHT22;2661;50.786;12.728;2023-05-07T01:16:17;10.20;99.90
5276;DHT22;2661;50.786;12.728;2023-05-07T01:18:43;10.20;99.90
5276;DHT22;2661;50.786;12.728;2023-05-07T01:21:10;10.10;99.90
5276;DHT22;2661;50.786;12.728;2023-05-07T01:23:37;10.10;99.90
5276;DHT22;2661;50.786;12.728;2023-05-07T01:26:04;10.10;1.00
5276;DHT22;2661;50.786;12.728;2023-05-07T01:28:31;10.10;99.90
5276;DHT22;2661;50.786;12.728;2023-05-07T01:31:02;10.10;99.90
5276;DHT22;2661;50.786;12.728;2023-05-07T01:33:30;10.10;99.90
5276;DHT22;2661;50.786;12.728;2023-05-07T01:35:58;10.10;99.90
5276;DHT22;2661;50.786;12.728;2023-05-07T01:38:26;10.20;99.90
5276;DHT22;2661;50.786;12.728;2023-05-07T01:40:53;10.20;99.90
5276;DHT22;2661;50.786;12.728;2023-05-07T01:43:20;10.10;99.90
5276;DHT22;2661;50.786;12.728;2023-05-07T01:45:46;10.20;99.90
5276;DHT22;2661;50.786;12.728;2023-05-07T01:48:15;10.20;99.90
5276;DHT22;2661;50.786;12.728;2023-05-07T01:50:42;10.20;99.90
5276;DHT22;2661;50.786;12.728;2023-05-07T01:53:09;10.10;99.90
5276;DHT22;2661;50.786;12.728;2023-05-07T01:55:36;10.10;99.90
5276;DHT22;2661;50.786;12.728;2023-05-07T01:58:03;10.10;99.90
5276;DHT22;2661;50.786;12.728;2023-05-07T02:00:30;10.00;99.90
5276;DHT22;2661;50.786;12.728;2023-05-07T02:02:57;10.00;99.90
5276;DHT22;2661;50.786;12.728;2023-05-07T02:05:24;10.10;99.90
5276;DHT22;2661;50.786;12.728;2023-05-07T02:07:50;10.10;99.90
5276;DHT22;2661;50.786;12.728;2023-05-07T02:10:17;10.10;99.90
5276;DHT22;2661;50.786;12.728;2023-05-07T02:12:43;10.00;1.00
5276;DHT22;2661;50.786;12.728;2023-05-07T02:15:11;10.10;99.90
5276;DHT22;2661;50.786;12.728;2023-05-07T02:17:58;10.00;99.90
5276;DHT22;2661;50.786;12.728;2023-05-07T02:20:25;10.10;1.00
5276;DHT22;2661;50.786;12.728;2023-05-07T02:22:52;10.00;1.00
5276;DHT22;2661;50.786;12.728;2023-05-07T02:25:18;10.00;1.00
5276;DHT22;2661;50.786;12.728;2023-05-07T02:27:45;9.90;1.00
5276;DHT22;2661;50.786;12.728;2023-05-07T02:30:12;9.90;1.00
5276;DHT22;2661;50.786;12.728;2023-05-07T02:32:38;10.00;1.00
5276;DHT22;2661;50.786;12.728;2023-05-07T02:35:05;10.10;1.00
5276;DHT22;2661;50.786;12.728;2023-05-07T02:37:31;10.10;1.00
5276;DHT22;2661;50.786;12.728;2023-05-07T02:39:58;10.20;1.00
5276;DHT22;2661;50.786;12.728;2023-05-07T02:42:24;10.10;1.00
5276;DHT22;2661;50.786;12.728;2023-05-07T02:44:51;10.00;1.00
5276;DHT22;2661;50.786;12.728;2023-05-07T02:47:18;10.00;1.00
5276;DHT22;2661;50.786;12.728;2023-05-07T02:49:44;10.00;1.00
5276;DHT22;2661;50.786;12.728;2023-05-07T02:52:11;9.90;1.00
5276;DHT22;2661;50.786;12.728;2023-05-07T02:54:37;9.90;1.00
5276;DHT22;2661;50.786;12.728;2023-05-07T02:57:04;9.90;1.00
5276;DHT22;2661;50.786;12.728;2023-05-07T02:59:30;9.90;1.00
5276;DHT22;2661;50.786;12.728;2023-05-07T03:01:57;9.90;1.00
5276;DHT22;2661;50.786;12.728;2023-05-07T03:04:23;10.00;1.00
5276;DHT22;2661;50.786;12.728;2023-05-07T03:06:50;10.00;1.00
5276;DHT22;2661;50.786;12.728;2023-05-07T03:09:16;9.90;1.00
5276;DHT22;2661;50.786;12.728;2023-05-07T03:11:43;10.00;1.00
5276;DHT22;2661;50.786;12.728;2023-05-07T03:14:10;10.00;1.00
5276;DHT22;2661;50.786;12.728;2023-05-07T03:16:37;9.90;1.00
5276;DHT22;2661;50.786;12.728;2023-05-07T03:19:04;9.80;1.00
5276;DHT22;2661;50.786;12.728;2023-05-07T03:21:30;9.80;1.00
5276;DHT22;2661;50.786;12.728;2023-05-07T03:24:00;9.80;1.00
5276;DHT22;2661;50.786;12.728;2023-05-07T03:26:26;9.80;1.00
5276;DHT22;2661;50.786;12.728;2023-05-07T03:28:53;9.80;1.00
5276;DHT22;2661;50.786;12.728;2023-05-07T03:31:20;9.80;1.00
5276;DHT22;2661;50.786;12.728;2023-05-07T03:33:50;9.90;1.00
5276;DHT22;2661;50.786;12.728;2023-05-07T03:36:17;9.90;1.00
5276;DHT22;2661;50.786;12.728;2023-05-07T03:38:44;10.00;1.00
5276;DHT22;2661;50.786;12.728;2023-05-07T03:41:11;9.90;1.00
5276;DHT22;2661;50.786;12.728;2023-05-07T03:43:37;9.90;1.00
5276;DHT22;2661;50.786;12.728;2023-05-07T03:46:04;9.90;1.00
5276;DHT22;2661;50.786;12.728;2023-05-07T03:48:31;9.80;1.00
5276;DHT22;2661;50.786;12.728;2023-05-07T03:50:57;9.80;1.00
5276;DHT22;2661;50.786;12.728;2023-05-07T03:53:24;9.80;1.00
5276;DHT22;2661;50.786;12.728;2023-05-07T03:55:50;9.90;1.00
5276;DHT22;2661;50.786;12.728;2023-05-07T03:58:17;9.90;1.00
5276;DHT22;2661;50.786;12.728;2023-05-07T04:00:43;9.80;1.00
5276;DHT22;2661;50.786;12.728;2023-05-07T04:03:10;9.90;1.00
5276;DHT22;2661;50.786;12.728;2023-05-07T04:05:37;9.80;1.00
5276;DHT22;2661;50.786;12.728;2023-05-07T04:08:03;9.80;1.00
5276;DHT22;2661;50.786;12.728;2023-05-07T04:10:30;9.90;1.00
5276;DHT22;2661;50.786;12.728;2023-05-07T04:12:56;9.80;1.00
5276;DHT22;2661;50.786;12.728;2023-05-07T04:15:23;9.80;1.00
5276;DHT22;2661;50.786;12.728;2023-05-07T04:17:50;9.80;1.00
5276;DHT22;2661;50.786;12.728;2023-05-07T04:20:17;9.80;1.00
5276;DHT22;2661;50.786;12.728;2023-05-07T04:22:44;9.80;1.00
5276;DHT22;2661;50.786;12.728;2023-05-07T04:25:10;9.80;1.00
5276;DHT22;2661;50.786;12.728;2023-05-07T04:27:37;9.80;1.00
5276;DHT22;2661;50.786;12.728;2023-05-07T04:30:04;9.80;1.00
5276;DHT22;2661;50.786;12.728;2023-05-07T04:32:30;9.80;1.00
5276;DHT22;2661;50.786;12.728;2023-05-07T04:34:58;9.80;1.00
5276;DHT22;2661;50.786;12.728;2023-05-07T04:37:25;9.80;1.00
5276;DHT22;2661;50.786;12.728;2023-05-07T04:39:52;9.80;1.00
5276;DHT22;2661;50.786;12.728;2023-05-07T04:42:18;9.90;1.00
5276;DHT22;2661;50.786;12.728;2023-05-07T04:44:45;9.90;1.00
5276;DHT22;2661;50.786;12.728;2023-05-07T04:47:12;10.00;1.00
5276;DHT22;2661;50.786;12.728;2023-05-07T04:49:38;10.00;1.00
5276;DHT22;2661;50.786;12.728;2023-05-07T04:52:05;10.00;1.00
5276;DHT22;2661;50.786;12.728;2023-05-07T04:54:31;10.00;1.00
5276;DHT22;2661;50.786;12.728;2023-05-07T04:56:58;10.00;1.00
5276;DHT22;2661;50.786;12.728;2023-05-07T04:59:25;9.90;1.00
5276;DHT22;2661;50.786;12.728;2023-05-07T05:01:51;9.90;1.00
5276;DHT22;2661;50.786;12.728;2023-05-07T05:04:18;9.90;1.00
5276;DHT22;2661;50.786;12.728;2023-05-07T05:06:44;9.90;1.00
5276;DHT22;2661;50.786;12.728;2023-05-07T05:09:11;9.90;1.00
5276;DHT22;2661;50.786;12.728;2023-05-07T05:11:38;9.90;1.00
5276;DHT22;2661;50.786;12.728;2023-05-07T05:14:05;10.00;1.00
5276;DHT22;2661;50.786;12.728;2023-05-07T05:16:31;10.00;1.00
5276;DHT22;2661;50.786;12.728;2023-05-07T05:18:58;10.10;1.00
5276;DHT22;2661;50.786;12.728;2023-05-07T05:21:25;10.20;1.00
5276;DHT22;2661;50.786;12.728;2023-05-07T05:23:52;10.20;1.00
5276;DHT22;2661;50.786;12.728;2023-05-07T05:26:18;10.30;1.00
5276;DHT22;2661;50.786;12.728;2023-05-07T05:28:45;10.40;1.00
5276;DHT22;2661;50.786;12.728;2023-05-07T05:31:11;10.40;1.00
5276;DHT22;2661;50.786;12.728;2023-05-07T05:33:38;10.50;1.00
5276;DHT22;2661;50.786;12.728;2023-05-07T05:36:05;10.50;99.90
5276;DHT22;2661;50.786;12.728;2023-05-07T05:38:31;10.50;1.00
5276;DHT22;2661;50.786;12.728;2023-05-07T05:40:58;10.60;1.00
5276;DHT22;2661;50.786;12.728;2023-05-07T05:43:24;10.70;99.90
5276;DHT22;2661;50.786;12.728;2023-05-07T05:45:51;10.70;99.90
5276;DHT22;2661;50.786;12.728;2023-05-07T05:48:17;10.50;99.90
5276;DHT22;2661;50.786;12.728;2023-05-07T05:50:44;10.50;99.90
5276;DHT22;2661;50.786;12.728;2023-05-07T05:53:11;10.50;1.00
5276;DHT22;2661;50.786;12.728;2023-05-07T05:55:37;10.50;1.00
5276;DHT22;2661;50.786;12.728;2023-05-07T05:58:04;10.50;1.00
5276;DHT22;2661;50.786;12.728;2023-05-07T06:00:30;10.50;1.00
5276;DHT22;2661;50.786;12.728;2023-05-07T06:02:57;10.50;1.00
5276;DHT22;2661;50.786;12.728;2023-05-07T06:05:23;10.60;1.00
5276;DHT22;2661;50.786;12.728;2023-05-07T06:07:50;10.70;99.90
5276;DHT22;2661;50.786;12.728;2023-05-07T06:10:16;10.70;99.90
5276;DHT22;2661;50.786;12.728;2023-05-07T06:12:43;10.70;99.90
5276;DHT22;2661;50.786;12.728;2023-05-07T06:15:10;10.70;99.90
5276;DHT22;2661;50.786;12.728;2023-05-07T06:17:37;10.80;99.90
5276;DHT22;2661;50.786;12.728;2023-05-07T06:20:04;10.90;99.90
5276;DHT22;2661;50.786;12.728;2023-05-07T06:22:30;10.80;99.90
5276;DHT22;2661;50.786;12.728;2023-05-07T06:24:57;10.90;99.90
5276;DHT22;2661;50.786;12.728;2023-05-07T06:27:23;10.80;99.90
5276;DHT22;2661;50.786;12.728;2023-05-07T06:29:50;10.90;99.90
5276;DHT22;2661;50.786;12.728;2023-05-07T06:32:16;10.90;99.90
5276;DHT22;2661;50.786;12.728;2023-05-07T06:34:43;11.00;99.90
5276;DHT22;2661;50.786;12.728;2023-05-07T06:37:10;11.10;99.90
5276;DHT22;2661;50.786;12.728;2023-05-07T06:39:36;11.10;99.90
5276;DHT22;2661;50.786;12.728;2023-05-07T06:42:03;11.10;99.90
5276;DHT22;2661;50.786;12.728;2023-05-07T06:44:31;11.10;99.90
5276;DHT22;2661;50.786;12.728;2023-05-07T06:46:57;11.10;99.90
5276;DHT22;2661;50.786;12.728;2023-05-07T06:49:24;11.00;99.90
5276;DHT22;2661;50.786;12.728;2023-05-07T06:51:50;11.00;99.90
5276;DHT22;2661;50.786;12.728;2023-05-07T06:54:17;10.90;99.90
5276;DHT22;2661;50.786;12.728;2023-05-07T06:56:43;10.90;99.90
5276;DHT22;2661;50.786;12.728;2023-05-07T06:59:10;10.90;99.90
5276;DHT22;2661;50.786;12.728;2023-05-07T07:01:36;11.00;99.90
5276;DHT22;2661;50.786;12.728;2023-05-07T07:04:04;11.00;99.90
5276;DHT22;2661;50.786;12.728;2023-05-07T07:06:30;11.00;99.90
5276;DHT22;2661;50.786;12.728;2023-05-07T07:08:58;11.10;99.90
5276;DHT22;2661;50.786;12.728;2023-05-07T07:11:25;11.10;99.90
5276;DHT22;2661;50.786;12.728;2023-05-07T07:13:51;11.00;99.90
5276;DHT22;2661;50.786;12.728;2023-05-07T07:16:21;11.00;99.90
5276;DHT22;2661;50.786;12.728;2023-05-07T07:18:47;11.10;99.90
5276;DHT22;2661;50.786;12.728;2023-05-07T07:21:14;11.10;99.90
5276;DHT22;2661;50.786;12.728;2023-05-07T07:23:41;11.10;99.90
5276;DHT22;2661;50.786;12.728;2023-05-07T07:26:07;11.30;99.90
5276;DHT22;2661;50.786;12.728;2023-05-07T07:28:34;11.30;99.90
5276;DHT22;2661;50.786;12.728;2023-05-07T07:31:01;11.40;99.90
5276;DHT22;2661;50.786;12.728;2023-05-07T07:33:27;11.50;99.90
5276;DHT22;2661;50.786;12.728;2023-05-07T07:35:55;11.60;99.90
5276;DHT22;2661;50.786;12.728;2023-05-07T07:38:21;11.60;99.90
5276;DHT22;2661;50.786;12.728;2023-05-07T07:40:48;11.60;99.90
5276;DHT22;2661;50.786;12.728;2023-05-07T07:43:14;11.50;99.90
5276;DHT22;2661;50.786;12.728;2023-05-07T07:45:41;11.60;99.90
5276;DHT22;2661;50.786;12.728;2023-05-07T07:48:08;11.70;99.90
5276;DHT22;2661;50.786;12.728;2023-05-07T07:50:34;11.60;99.90
5276;DHT22;2661;50.786;12.728;2023-05-07T07:53:10;11.70;99.90
5276;DHT22;2661;50.786;12.728;2023-05-07T07:55:40;11.70;99.90
5276;DHT22;2661;50.786;12.728;2023-05-07T07:58:07;11.80;99.90
5276;DHT22;2661;50.786;12.728;2023-05-07T08:00:33;11.90;99.90
5276;DHT22;2661;50.786;12.728;2023-05-07T08:03:00;11.80;99.90
5276;DHT22;2661;50.786;12.728;2023-05-07T08:05:30;11.80;99.90
5276;DHT22;2661;50.786;12.728;2023-05-07T08:07:57;11.70;99.90
5276;DHT22;2661;50.786;12.728;2023-05-07T08:10:25;11.70;99.90
5276;DHT22;2661;50.786;12.728;2023-05-07T08:12:51;11.70;99.90
5276;DHT22;2661;50.786;12.728;2023-05-07T08:15:19;11.80;99.90
5276;DHT22;2661;50.786;12.728;2023-05-07T08:17:46;11.80;99.90
5276;DHT22;2661;50.786;12.728;2023-05-07T08:20:12;11.70;99.90
5276;DHT22;2661;50.786;12.728;2023-05-07T08:22:39;11.70;99.90
5276;DHT22;2661;50.786;12.728;2023-05-07T08:25:06;11.80;99.90
5276;DHT22;2661;50.786;12.728;2023-05-07T08:27:33;11.80;99.90
5276;DHT22;2661;50.786;12.728;2023-05-07T08:29:59;11.90;99.90
5276;DHT22;2661;50.786;12.728;2023-05-07T08:32:26;12.00;99.90
5276;DHT22;2661;50.786;12.728;2023-05-07T08:34:53;12.00;99.90
5276;DHT22;2661;50.786;12.728;2023-05-07T08:37:19;12.00;99.90
5276;DHT22;2661;50.786;12.728;2023-05-07T08:39:46;12.20;99.90
5276;DHT22;2661;50.786;12.728;2023-05-07T08:42:13;12.30;99.90
5276;DHT22;2661;50.786;12.728;2023-05-07T08:44:42;12.40;99.90
5276;DHT22;2661;50.786;12.728;2023-05-07T08:47:10;12.40;99.90
5276;DHT22;2661;50.786;12.728;2023-05-07T08:49:36;12.40;99.90
5276;DHT22;2661;50.786;12.728;2023-05-07T08:52:03;12.50;99.90
5276;DHT22;2661;50.786;12.728;2023-05-07T08:54:30;12.60;99.90
5276;DHT22;2661;50.786;12.728;2023-05-07T08:56:57;12.60;99.90
5276;DHT22;2661;50.786;12.728;2023-05-07T08:59:23;12.50;99.90
5276;DHT22;2661;50.786;12.728;2023-05-07T09:01:50;12.50;99.90
5276;DHT22;2661;50.786;12.728;2023-05-07T09:04:16;12.40;99.90
5276;DHT22;2661;50.786;12.728;2023-05-07T09:06:43;12.20;99.90
5276;DHT22;2661;50.786;12.728;2023-05-07T09:09:10;12.20;99.90
5276;DHT22;2661;50.786;12.728;2023-05-07T09:11:40;12.30;99.90
5276;DHT22;2661;50.786;12.728;2023-05-07T09:14:07;12.50;99.90
5276;DHT22;2661;50.786;12.728;2023-05-07T09:16:35;12.40;99.90
5276;DHT22;2661;50.786;12.728;2023-05-07T09:19:02;12.40;99.90
5276;DHT22;2661;50.786;12.728;2023-05-07T09:21:28;12.50;99.90
5276;DHT22;2661;50.786;12.728;2023-05-07T09:23:56;12.60;99.90
5276;DHT22;2661;50.786;12.728;2023-05-07T09:26:23;12.70;99.90
5276;DHT22;2661;50.786;12.728;2023-05-07T09:28:49;12.90;99.90
5276;DHT22;2661;50.786;12.728;2023-05-07T09:31:16;13.00;99.90
5276;DHT22;2661;50.786;12.728;2023-05-07T09:33:46;13.10;99.90
5276;DHT22;2661;50.786;12.728;2023-05-07T09:36:13;13.00;99.90
5276;DHT22;2661;50.786;12.728;2023-05-07T09:38:40;13.00;99.90
5276;DHT22;2661;50.786;12.728;2023-05-07T09:41:07;13.10;99.90
5276;DHT22;2661;50.786;12.728;2023-05-07T09:43:35;13.30;99.90
5276;DHT22;2661;50.786;12.728;2023-05-07T09:46:02;13.40;99.90
5276;DHT22;2661;50.786;12.728;2023-05-07T09:48:29;13.60;99.90
5276;DHT22;2661;50.786;12.728;2023-05-07T09:50:56;13.40;99.90
5276;DHT22;2661;50.786;12.728;2023-05-07T09:53:26;13.20;99.90
5276;DHT22;2661;50.786;12.728;2023-05-07T09:55:53;13.00;99.90
5276;DHT22;2661;50.786;12.728;2023-05-07T09:58:19;12.90;99.90
5276;DHT22;2661;50.786;12.728;2023-05-07T10:00:46;12.90;99.90
5276;DHT22;2661;50.786;12.728;2023-05-07T10:03:13;12.90;99.90
5276;DHT22;2661;50.786;12.728;2023-05-07T10:05:40;13.00;99.90
5276;DHT22;2661;50.786;12.728;2023-05-07T10:08:08;13.10;99.90
5276;DHT22;2661;50.786;12.728;2023-05-07T10:10:35;13.30;99.90
5276;DHT22;2661;50.786;12.728;2023-05-07T10:13:02;13.30;99.90
5276;DHT22;2661;50.786;12.728;2023-05-07T10:15:32;13.40;99.90
5276;DHT22;2661;50.786;12.728;2023-05-07T10:17:59;13.40;99.90
5276;DHT22;2661;50.786;12.728;2023-05-07T10:20:25;13.40;99.90
5276;DHT22;2661;50.786;12.728;2023-05-07T10:22:53;13.40;99.90
5276;DHT22;2661;50.786;12.728;2023-05-07T10:25:28;13.40;99.90
5276;DHT22;2661;50.786;12.728;2023-05-07T10:27:57;13.30;99.90
5276;DHT22;2661;50.786;12.728;2023-05-07T10:33:10;13.10;99.90
5276;DHT22;2661;50.786;12.728;2023-05-07T10:35:39;13.10;99.90
5276;DHT22;2661;50.786;12.728;2023-05-07T10:38:07;13.20;99.90
5276;DHT22;2661;50.786;12.728;2023-05-07T10:40:34;13.20;99.90
5276;DHT22;2661;50.786;12.728;2023-05-07T10:43:04;13.20;99.90
5276;DHT22;2661;50.786;12.728;2023-05-07T10:45:35;13.10;99.90
5276;DHT22;2661;50.786;12.728;2023-05-07T10:48:09;13.10;99.90
5276;DHT22;2661;50.786;12.728;2023-05-07T10:51:17;13.20;99.90
5276;DHT22;2661;50.786;12.728;2023-05-07T10:53:40;13.10;99.90
5276;DHT22;2661;50.786;12.728;2023-05-07T10:56:23;13.20;99.90
5276;DHT22;2661;50.786;12.728;2023-05-07T10:58:50;13.20;99.90
5276;DHT22;2661;50.786;12.728;2023-05-07T11:01:17;13.30;99.90
5276;DHT22;2661;50.786;12.728;2023-05-07T11:04:13;13.40;99.90
5276;DHT22;2661;50.786;12.728;2023-05-07T11:06:40;13.40;99.90
5276;DHT22;2661;50.786;12.728;2023-05-07T11:09:06;13.40;99.90
5276;DHT22;2661;50.786;12.728;2023-05-07T11:11:49;13.50;99.90
5276;DHT22;2661;50.786;12.728;2023-05-07T11:17:04;13.60;99.90
5276;DHT22;2661;50.786;12.728;2023-05-07T11:19:47;13.60;99.90
5276;DHT22;2661;50.786;12.728;2023-05-07T11:24:59;13.70;99.90
5276;DHT22;2661;50.786;12.728;2023-05-07T11:27:26;13.60;99.90
5276;DHT22;2661;50.786;12.728;2023-05-07T11:29:53;13.70;99.90
5276;DHT22;2661;50.786;12.728;2023-05-07T11:32:23;13.70;99.90
5276;DHT22;2661;50.786;12.728;2023-05-07T11:34:53;13.70;99.90
5276;DHT22;2661;50.786;12.728;2023-05-07T11:37:20;13.70;99.90
5276;DHT22;2661;50.786;12.728;2023-05-07T11:39:47;13.70;99.90
5276;DHT22;2661;50.786;12.728;2023-05-07T11:42:33;13.60;99.90
5276;DHT22;2661;50.786;12.728;2023-05-07T11:45:00;13.70;99.90
5276;DHT22;2661;50.786;12.728;2023-05-07T11:47:29;13.70;99.90
5276;DHT22;2661;50.786;12.728;2023-05-07T11:49:56;13.70;99.90
5276;DHT22;2661;50.786;12.728;2023-05-07T11:52:23;13.70;99.90
5276;DHT22;2661;50.786;12.728;2023-05-07T11:54:54;13.80;99.90
5276;DHT22;2661;50.786;12.728;2023-05-07T11:57:21;13.90;99.90
5276;DHT22;2661;50.786;12.728;2023-05-07T11:59:52;13.90;99.90
5276;DHT22;2661;50.786;12.728;2023-05-07T12:02:19;13.90;99.90
5276;DHT22;2661;50.786;12.728;2023-05-07T12:04:45;13.90;99.90
5276;DHT22;2661;50.786;12.728;2023-05-07T12:07:12;13.90;99.90
5276;DHT22;2661;50.786;12.728;2023-05-07T12:09:40;14.00;99.90
5276;DHT22;2661;50.786;12.728;2023-05-07T12:12:07;14.20;99.90
5276;DHT22;2661;50.786;12.728;2023-05-07T12:14:40;14.30;99.90
5276;DHT22;2661;50.786;12.728;2023-05-07T12:17:07;14.50;99.90
5276;DHT22;2661;50.786;12.728;2023-05-07T12:19:34;14.50;99.90
5276;DHT22;2661;50.786;12.728;2023-05-07T12:22:04;14.60;99.90
5276;DHT22;2661;50.786;12.728;2023-05-07T12:24:42;14.60;99.90
5276;DHT22;2661;50.786;12.728;2023-05-07T12:27:09;14.70;99.90
5276;DHT22;2661;50.786;12.728;2023-05-07T12:29:35;14.70;99.90
5276;DHT22;2661;50.786;12.728;2023-05-07T12:32:06;14.60;99.90
5276;DHT22;2661;50.786;12.728;2023-05-07T12:34:33;14.40;99.90
5276;DHT22;2661;50.786;12.728;2023-05-07T12:37:01;14.60;99.90
5276;DHT22;2661;50.786;12.728;2023-05-07T12:39:28;14.60;99.90
5276;DHT22;2661;50.786;12.728;2023-05-07T12:41:55;14.60;99.90
5276;DHT22;2661;50.786;12.728;2023-05-07T12:44:22;14.60;99.90
5276;DHT22;2661;50.786;12.728;2023-05-07T12:46:50;14.70;99.90
5276;DHT22;2661;50.786;12.728;2023-05-07T12:49:17;14.80;99.90
5276;DHT22;2661;50.786;12.728;2023-05-07T12:51:50;14.60;99.90
5276;DHT22;2661;50.786;12.728;2023-05-07T12:54:29;14.50;99.90
5276;DHT22;2661;50.786;12.728;2023-05-07T12:57:00;14.60;99.90
5276;DHT22;2661;50.786;12.728;2023-05-07T12:59:33;14.60;99.90
5276;DHT22;2661;50.786;12.728;2023-05-07T13:02:00;14.60;99.90
5276;DHT22;2661;50.786;12.728;2023-05-07T13:04:26;14.60;99.90
5276;DHT22;2661;50.786;12.728;2023-05-07T13:06:53;14.60;99.90
5276;DHT22;2661;50.786;12.728;2023-05-07T13:09:20;14.60;99.90
5276;DHT22;2661;50.786;12.728;2023-05-07T13:11:46;14.60;99.90
5276;DHT22;2661;50.786;12.728;2023-05-07T13:14:13;14.60;99.90
5276;DHT22;2661;50.786;12.728;2023-05-07T13:16:39;14.70;99.90
5276;DHT22;2661;50.786;12.728;2023-05-07T13:19:06;14.80;99.90
5276;DHT22;2661;50.786;12.728;2023-05-07T13:21:33;14.80;99.90
5276;DHT22;2661;50.786;12.728;2023-05-07T13:23:59;14.80;99.90
5276;DHT22;2661;50.786;12.728;2023-05-07T13:26:26;14.80;99.90
5276;DHT22;2661;50.786;12.728;2023-05-07T13:28:53;14.80;99.90
5276;DHT22;2661;50.786;12.728;2023-05-07T13:31:20;14.90;99.90
5276;DHT22;2661;50.786;12.728;2023-05-07T13:33:47;14.90;99.90
5276;DHT22;2661;50.786;12.728;2023-05-07T13:36:14;15.00;99.90
5276;DHT22;2661;50.786;12.728;2023-05-07T13:38:40;15.10;99.90
5276;DHT22;2661;50.786;12.728;2023-05-07T13:41:07;15.20;99.90
5276;DHT22;2661;50.786;12.728;2023-05-07T13:43:34;15.10;99.90
5276;DHT22;2661;50.786;12.728;2023-05-07T13:46:00;15.10;99.90
5276;DHT22;2661;50.786;12.728;2023-05-07T13:48:27;15.10;99.90
5276;DHT22;2661;50.786;12.728;2023-05-07T13:50:54;15.10;99.90
5276;DHT22;2661;50.786;12.728;2023-05-07T13:53:21;15.10;99.90
5276;DHT22;2661;50.786;12.728;2023-05-07T13:55:48;15.20;99.90
5276;DHT22;2661;50.786;12.728;2023-05-07T13:58:14;15.10;99.90
5276;DHT22;2661;50.786;12.728;2023-05-07T14:00:41;15.30;99.90
5276;DHT22;2661;50.786;12.728;2023-05-07T14:03:08;15.30;99.90
5276;DHT22;2661;50.786;12.728;2023-05-07T14:05:34;15.20;99.90
5276;DHT22;2661;50.786;12.728;2023-05-07T14:08:02;15.20;99.90
5276;DHT22;2661;50.786;12.728;2023-05-07T14:10:29;15.10;99.90
5276;DHT22;2661;50.786;12.728;2023-05-07T14:12:56;15.10;99.90
5276;DHT22;2661;50.786;12.728;2023-05-07T14:15:23;15.10;99.90
5276;DHT22;2661;50.786;12.728;2023-05-07T14:17:49;15.10;99.90
5276;DHT22;2661;50.786;12.728;2023-05-07T14:20:16;15.10;99.90
5276;DHT22;2661;50.786;12.728;2023-05-07T14:22:45;15.10;99.90
5276;DHT22;2661;50.786;12.728;2023-05-07T14:25:12;15.00;99.90
5276;DHT22;2661;50.786;12.728;2023-05-07T14:27:40;14.90;99.90
5276;DHT22;2661;50.786;12.728;2023-05-07T14:30:07;14.90;99.90
5276;DHT22;2661;50.786;12.728;2023-05-07T14:32:34;14.90;99.90
5276;DHT22;2661;50.786;12.728;2023-05-07T14:35:00;15.00;99.90
5276;DHT22;2661;50.786;12.728;2023-05-07T14:37:27;15.20;99.90
5276;DHT22;2661;50.786;12.728;2023-05-07T14:39:54;15.50;99.90
5276;DHT22;2661;50.786;12.728;2023-05-07T14:42:21;15.50;99.90
5276;DHT22;2661;50.786;12.728;2023-05-07T14:44:47;15.60;99.90
5276;DHT22;2661;50.786;12.728;2023-05-07T14:47:14;15.70;99.90
5276;DHT22;2661;50.786;12.728;2023-05-07T14:49:45;15.70;99.90
5276;DHT22;2661;50.786;12.728;2023-05-07T14:52:11;15.80;99.90
5276;DHT22;2661;50.786;12.728;2023-05-07T14:54:38;15.90;99.90
5276;DHT22;2661;50.786;12.728;2023-05-07T14:57:05;15.90;99.90
5276;DHT22;2661;50.786;12.728;2023-05-07T14:59:32;15.90;99.90
5276;DHT22;2661;50.786;12.728;2023-05-07T15:01:58;15.80;99.90
5276;DHT22;2661;50.786;12.728;2023-05-07T15:04:25;15.80;99.90
5276;DHT22;2661;50.786;12.728;2023-05-07T15:06:52;15.60;99.90
5276;DHT22;2661;50.786;12.728;2023-05-07T15:09:20;15.60;99.90
5276;DHT22;2661;50.786;12.728;2023-05-07T15:11:46;15.50;99.90
5276;DHT22;2661;50.786;12.728;2023-05-07T15:14:13;15.40;99.90
5276;DHT22;2661;50.786;12.728;2023-05-07T15:16:40;15.40;99.90
5276;DHT22;2661;50.786;12.728;2023-05-07T15:19:06;15.40;99.90
5276;DHT22;2661;50.786;12.728;2023-05-07T15:21:33;15.60;99.90
5276;DHT22;2661;50.786;12.728;2023-05-07T15:24:01;15.60;99.90
5276;DHT22;2661;50.786;12.728;2023-05-07T15:26:28;15.70;99.90
5276;DHT22;2661;50.786;12.728;2023-05-07T15:28:55;15.70;99.90
5276;DHT22;2661;50.786;12.728;2023-05-07T15:31:23;15.70;99.90
5276;DHT22;2661;50.786;12.728;2023-05-07T15:33:51;15.70;99.90
5276;DHT22;2661;50.786;12.728;2023-05-07T15:36:19;15.70;99.90
5276;DHT22;2661;50.786;12.728;2023-05-07T15:38:46;15.70;99.90
5276;DHT22;2661;50.786;12.728;2023-05-07T15:41:12;15.70;99.90
5276;DHT22;2661;50.786;12.728;2023-05-07T15:43:47;15.80;99.90
5276;DHT22;2661;50.786;12.728;2023-05-07T15:46:20;15.80;99.90
5276;DHT22;2661;50.786;12.728;2023-05-07T15:48:48;15.80;99.90
5276;DHT22;2661;50.786;12.728;2023-05-07T15:51:14;15.70;99.90
5276;DHT22;2661;50.786;12.728;2023-05-07T15:53:41;15.70;99.90
5276;DHT22;2661;50.786;12.728;2023-05-07T15:56:08;15.80;99.90
5276;DHT22;2661;50.786;12.728;2023-05-07T15:58:35;15.80;99.90
5276;DHT22;2661;50.786;12.728;2023-05-07T16:01:02;15.90;99.90